sensor_id;sensor_type;location;lat;lon;timestamp;temperature;humidity
24049;DHT22;12250;50.956;4.746;2023-06-22T00:00:43;20.30;99.90
24049;DHT22;12250;50.956;4.746;2023-06-22T00:03:10;20.20;99.90
24049;DHT22;12250;50.956;4.746;2023-06-22T00:05:35;20.20;99.90
24049;DHT22;12250;50.956;4.746;2023-06-22T00:08:03;20.20;99.90
24049;DHT22;12250;50.956;4.746;2023-06-22T00:10:30;20.30;99.90
24049;DHT22;12250;50.956;4.746;2023-06-22T00:12:56;20.20;99.90
24049;DHT22;12250;50.956;4.746;2023-06-22T00:15:21;20.20;99.90
24049;DHT22;12250;50.956;4.746;2023-06-22T00:17:49;20.20;99.90
24049;DHT22;12250;50.956;4.746;2023-06-22T00:20:14;20.10;99.90
24049;DHT22;12250;50.956;4.746;2023-06-22T00:22:40;20.10;99.90
24049;DHT22;12250;50.956;4.746;2023-06-22T00:25:07;20.00;99.90
24049;DHT22;12250;50.956;4.746;2023-06-22T00:27:32;19.90;99.90
24049;DHT22;12250;50.956;4.746;2023-06-22T00:29:58;19.80;99.90
24049;DHT22;12250;50.956;4.746;2023-06-22T00:32:24;19.70;99.90
24049;DHT22;12250;50.956;4.746;2023-06-22T00:34:49;19.50;99.90
24049;DHT22;12250;50.956;4.746;2023-06-22T00:37:16;19.50;99.90
24049;DHT22;12250;50.956;4.746;2023-06-22T00:39:43;19.40;99.90
24049;DHT22;12250;50.956;4.746;2023-06-22T00:42:09;19.40;99.90
24049;DHT22;12250;50.956;4.746;2023-06-22T00:44:35;19.30;99.90
24049;DHT22;12250;50.956;4.746;2023-06-22T00:47:02;19.30;99.90
24049;DHT22;12250;50.956;4.746;2023-06-22T00:49:28;19.30;99.90
24049;DHT22;12250;50.956;4.746;2023-06-22T00:51:54;19.40;99.90
24049;DHT22;12250;50.956;4.746;2023-06-22T00:54:20;19.50;99.90
24049;DHT22;12250;50.956;4.746;2023-06-22T00:56:53;19.50;99.90
24049;DHT22;12250;50.956;4.746;2023-06-22T00:59:23;19.60;99.90
24049;DHT22;12250;50.956;4.746;2023-06-22T01:01:49;19.70;99.90
24049;DHT22;12250;50.956;4.746;2023-06-22T01:04:15;19.70;99.90
24049;DHT22;12250;50.956;4.746;2023-06-22T01:09:58;19.80;99.90
24049;DHT22;12250;50.956;4.746;2023-06-22T01:12:25;19.90;99.90
24049;DHT22;12250;50.956;4.746;2023-06-22T01:15:06;19.90;99.90
24049;DHT22;12250;50.956;4.746;2023-06-22T01:17:35;19.90;99.90
24049;DHT22;12250;50.956;4.746;2023-06-22T01:20:02;20.00;99.90
24049;DHT22;12250;50.956;4.746;2023-06-22T01:22:33;20.00;99.90
24049;DHT22;12250;50.956;4.746;2023-06-22T01:25:20;20.00;99.90
24049;DHT22;12250;50.956;4.746;2023-06-22T01:30:30;20.00;99.90
24049;DHT22;12250;50.956;4.746;2023-06-22T01:33:01;20.00;99.90
24049;DHT22;12250;50.956;4.746;2023-06-22T01:35:27;19.90;99.90
24049;DHT22;12250;50.956;4.746;2023-06-22T01:37:54;19.90;99.90
24049;DHT22;12250;50.956;4.746;2023-06-22T01:40:20;19.80;99.90
24049;DHT22;12250;50.956;4.746;2023-06-22T01:42:47;19.70;99.90
24049;DHT22;12250;50.956;4.746;2023-06-22T01:45:13;19.60;99.90
24049;DHT22;12250;50.956;4.746;2023-06-22T01:47:40;19.50;99.90
24049;DHT22;12250;50.956;4.746;2023-06-22T01:50:06;19.40;99.90
24049;DHT22;12250;50.956;4.746;2023-06-22T01:52:32;19.40;99.90
24049;DHT22;12250;50.956;4.746;2023-06-22T01:54:59;19.30;99.90
24049;DHT22;12250;50.956;4.746;2023-06-22T01:57:26;19.20;99.90
24049;DHT22;12250;50.956;4.746;2023-06-22T02:00:06;19.20;99.90
24049;DHT22;12250;50.956;4.746;2023-06-22T02:02:53;19.10;99.90
24049;DHT22;12250;50.956;4.746;2023-06-22T02:05:19;19.00;99.90
24049;DHT22;12250;50.956;4.746;2023-06-22T02:07:52;18.80;99.90
24049;DHT22;12250;50.956;4.746;2023-06-22T02:10:23;18.80;99.90
24049;DHT22;12250;50.956;4.746;2023-06-22T02:12:50;18.70;99.90
24049;DHT22;12250;50.956;4.746;2023-06-22T02:15:17;18.70;99.90
24049;DHT22;12250;50.956;4.746;2023-06-22T02:17:43;18.70;99.90
24049;DHT22;12250;50.956;4.746;2023-06-22T02:20:15;18.60;99.90
24049;DHT22;12250;50.956;4.746;2023-06-22T02:22:41;18.50;99.90
24049;DHT22;12250;50.956;4.746;2023-06-22T02:25:07;18.50;99.90
24049;DHT22;12250;50.956;4.746;2023-06-22T02:27:33;18.50;99.90
24049;DHT22;12250;50.956;4.746;2023-06-22T02:29:58;18.40;99.90
24049;DHT22;12250;50.956;4.746;2023-06-22T02:32:24;18.40;99.90
24049;DHT22;12250;50.956;4.746;2023-06-22T02:34:50;18.30;99.90
24049;DHT22;12250;50.956;4.746;2023-06-22T02:37:17;18.30;99.90
24049;DHT22;12250;50.956;4.746;2023-06-22T02:39:43;18.20;99.90
24049;DHT22;12250;50.956;4.746;2023-06-22T02:42:09;18.20;99.90
24049;DHT22;12250;50.956;4.746;2023-06-22T02:44:36;18.10;99.90
24049;DHT22;12250;50.956;4.746;2023-06-22T02:47:02;18.10;99.90
24049;DHT22;12250;50.956;4.746;2023-06-22T02:49:28;18.10;99.90
24049;DHT22;12250;50.956;4.746;2023-06-22T02:51:53;18.10;99.90
24049;DHT22;12250;50.956;4.746;2023-06-22T02:54:20;18.10;99.90
24049;DHT22;12250;50.956;4.746;2023-06-22T02:56:46;18.00;99.90
24049;DHT22;12250;50.956;4.746;2023-06-22T02:59:13;18.00;99.90
24049;DHT22;12250;50.956;4.746;2023-06-22T03:01:39;18.00;99.90
24049;DHT22;12250;50.956;4.746;2023-06-22T03:04:08;18.00;99.90
24049;DHT22;12250;50.956;4.746;2023-06-22T03:06:35;17.90;99.90
24049;DHT22;12250;50.956;4.746;2023-06-22T03:09:05;17.90;99.90
24049;DHT22;12250;50.956;4.746;2023-06-22T03:11:31;18.00;99.90
24049;DHT22;12250;50.956;4.746;2023-06-22T03:13:58;18.00;99.90
24049;DHT22;12250;50.956;4.746;2023-06-22T03:16:24;18.00;99.90
24049;DHT22;12250;50.956;4.746;2023-06-22T03:18:49;18.10;99.90
24049;DHT22;12250;50.956;4.746;2023-06-22T03:21:15;18.20;99.90
24049;DHT22;12250;50.956;4.746;2023-06-22T03:23:42;18.30;99.90
24049;DHT22;12250;50.956;4.746;2023-06-22T03:26:11;18.50;99.90
24049;DHT22;12250;50.956;4.746;2023-06-22T03:28:37;18.60;99.90
24049;DHT22;12250;50.956;4.746;2023-06-22T03:31:03;18.60;99.90
24049;DHT22;12250;50.956;4.746;2023-06-22T03:33:29;18.70;99.90
24049;DHT22;12250;50.956;4.746;2023-06-22T03:35:55;18.80;99.90
24049;DHT22;12250;50.956;4.746;2023-06-22T03:38:21;18.90;99.90
24049;DHT22;12250;50.956;4.746;2023-06-22T03:40:47;18.90;99.90
24049;DHT22;12250;50.956;4.746;2023-06-22T03:43:12;18.90;99.90
24049;DHT22;12250;50.956;4.746;2023-06-22T03:45:38;19.00;99.90
24049;DHT22;12250;50.956;4.746;2023-06-22T03:48:05;18.90;99.90
24049;DHT22;12250;50.956;4.746;2023-06-22T03:50:31;18.90;99.90
24049;DHT22;12250;50.956;4.746;2023-06-22T03:52:57;18.90;99.90
24049;DHT22;12250;50.956;4.746;2023-06-22T03:55:22;19.00;99.90
24049;DHT22;12250;50.956;4.746;2023-06-22T03:57:48;19.10;99.90
24049;DHT22;12250;50.956;4.746;2023-06-22T04:00:14;19.10;99.90
24049;DHT22;12250;50.956;4.746;2023-06-22T04:02:41;19.10;99.90
24049;DHT22;12250;50.956;4.746;2023-06-22T04:05:09;19.10;99.90
24049;DHT22;12250;50.956;4.746;2023-06-22T04:07:35;19.20;99.90
24049;DHT22;12250;50.956;4.746;2023-06-22T04:10:03;19.20;99.90
24049;DHT22;12250;50.956;4.746;2023-06-22T04:12:29;19.30;99.90
24049;DHT22;12250;50.956;4.746;2023-06-22T04:14:55;19.40;99.90
24049;DHT22;12250;50.956;4.746;2023-06-22T04:17:20;19.40;99.90
24049;DHT22;12250;50.956;4.746;2023-06-22T04:19:46;19.50;99.90
24049;DHT22;12250;50.956;4.746;2023-06-22T04:22:12;19.60;99.90
24049;DHT22;12250;50.956;4.746;2023-06-22T04:24:38;19.60;99.90
24049;DHT22;12250;50.956;4.746;2023-06-22T04:27:04;19.60;99.90
24049;DHT22;12250;50.956;4.746;2023-06-22T04:29:30;19.60;99.90
24049;DHT22;12250;50.956;4.746;2023-06-22T04:31:57;19.70;99.90
24049;DHT22;12250;50.956;4.746;2023-06-22T04:34:24;19.70;99.90
24049;DHT22;12250;50.956;4.746;2023-06-22T04:36:53;19.70;99.90
24049;DHT22;12250;50.956;4.746;2023-06-22T04:39:19;19.70;99.90
24049;DHT22;12250;50.956;4.746;2023-06-22T04:41:44;19.70;99.90
24049;DHT22;12250;50.956;4.746;2023-06-22T04:44:15;19.70;99.90
24049;DHT22;12250;50.956;4.746;2023-06-22T04:46:51;19.70;99.90
24049;DHT22;12250;50.956;4.746;2023-06-22T04:49:20;19.80;99.90
24049;DHT22;12250;50.956;4.746;2023-06-22T04:51:46;19.80;99.90
24049;DHT22;12250;50.956;4.746;2023-06-22T04:54:12;19.80;99.90
24049;DHT22;12250;50.956;4.746;2023-06-22T04:56:38;19.90;99.90
24049;DHT22;12250;50.956;4.746;2023-06-22T04:59:07;20.00;99.90
24049;DHT22;12250;50.956;4.746;2023-06-22T05:01:33;20.10;99.90
24049;DHT22;12250;50.956;4.746;2023-06-22T05:04:00;20.30;99.90
24049;DHT22;12250;50.956;4.746;2023-06-22T05:06:28;20.40;99.90
24049;DHT22;12250;50.956;4.746;2023-06-22T05:08:54;20.50;99.90
24049;DHT22;12250;50.956;4.746;2023-06-22T05:11:27;20.70;99.90
24049;DHT22;12250;50.956;4.746;2023-06-22T05:13:53;20.80;99.90
24049;DHT22;12250;50.956;4.746;2023-06-22T05:16:20;20.90;99.90
24049;DHT22;12250;50.956;4.746;2023-06-22T05:18:53;20.90;99.90
24049;DHT22;12250;50.956;4.746;2023-06-22T05:21:23;20.90;99.90
24049;DHT22;12250;50.956;4.746;2023-06-22T05:23:53;20.90;99.90
24049;DHT22;12250;50.956;4.746;2023-06-22T05:26:22;20.90;99.90
24049;DHT22;12250;50.956;4.746;2023-06-22T05:28:48;20.90;99.90
24049;DHT22;12250;50.956;4.746;2023-06-22T05:31:14;20.90;99.90
24049;DHT22;12250;50.956;4.746;2023-06-22T05:33:41;20.90;99.90
24049;DHT22;12250;50.956;4.746;2023-06-22T05:36:07;20.90;99.90
24049;DHT22;12250;50.956;4.746;2023-06-22T05:38:33;21.00;99.90
24049;DHT22;12250;50.956;4.746;2023-06-22T05:40:58;21.00;99.90
24049;DHT22;12250;50.956;4.746;2023-06-22T05:43:24;21.00;99.90
24049;DHT22;12250;50.956;4.746;2023-06-22T05:45:50;20.90;99.90
24049;DHT22;12250;50.956;4.746;2023-06-22T05:48:15;20.90;99.90
24049;DHT22;12250;50.956;4.746;2023-06-22T05:50:42;20.90;99.90
24049;DHT22;12250;50.956;4.746;2023-06-22T05:53:07;20.80;99.90
24049;DHT22;12250;50.956;4.746;2023-06-22T05:55:33;20.90;99.90
24049;DHT22;12250;50.956;4.746;2023-06-22T05:57:59;20.90;99.90
24049;DHT22;12250;50.956;4.746;2023-06-22T06:00:24;21.00;99.90
24049;DHT22;12250;50.956;4.746;2023-06-22T06:02:50;21.00;99.90
24049;DHT22;12250;50.956;4.746;2023-06-22T06:05:16;21.20;99.90
24049;DHT22;12250;50.956;4.746;2023-06-22T06:07:42;21.30;99.90
24049;DHT22;12250;50.956;4.746;2023-06-22T06:10:09;21.50;99.90
24049;DHT22;12250;50.956;4.746;2023-06-22T06:12:35;21.70;99.90
24049;DHT22;12250;50.956;4.746;2023-06-22T06:15:01;21.90;99.90
24049;DHT22;12250;50.956;4.746;2023-06-22T06:17:27;22.00;99.90
24049;DHT22;12250;50.956;4.746;2023-06-22T06:19:52;22.00;99.90
24049;DHT22;12250;50.956;4.746;2023-06-22T06:22:18;22.00;99.90
24049;DHT22;12250;50.956;4.746;2023-06-22T06:24:45;21.90;99.90
24049;DHT22;12250;50.956;4.746;2023-06-22T06:27:11;21.90;99.90
24049;DHT22;12250;50.956;4.746;2023-06-22T06:29:37;21.90;99.90
24049;DHT22;12250;50.956;4.746;2023-06-22T06:32:02;22.00;99.90
24049;DHT22;12250;50.956;4.746;2023-06-22T06:34:29;22.10;99.90
24049;DHT22;12250;50.956;4.746;2023-06-22T06:36:54;22.10;99.90
24049;DHT22;12250;50.956;4.746;2023-06-22T06:39:20;22.20;99.90
24049;DHT22;12250;50.956;4.746;2023-06-22T06:41:46;22.40;99.90
24049;DHT22;12250;50.956;4.746;2023-06-22T06:44:11;22.30;99.90
24049;DHT22;12250;50.956;4.746;2023-06-22T06:46:37;22.40;99.90
24049;DHT22;12250;50.956;4.746;2023-06-22T06:49:03;22.50;99.90
24049;DHT22;12250;50.956;4.746;2023-06-22T06:51:29;22.70;99.90
24049;DHT22;12250;50.956;4.746;2023-06-22T06:53:54;22.60;99.90
24049;DHT22;12250;50.956;4.746;2023-06-22T06:56:20;22.80;99.90
24049;DHT22;12250;50.956;4.746;2023-06-22T06:58:46;23.10;99.90
24049;DHT22;12250;50.956;4.746;2023-06-22T07:01:15;23.20;99.90
24049;DHT22;12250;50.956;4.746;2023-06-22T07:03:40;23.20;99.90
24049;DHT22;12250;50.956;4.746;2023-06-22T07:06:06;23.00;99.90
24049;DHT22;12250;50.956;4.746;2023-06-22T07:08:32;23.00;99.90
24049;DHT22;12250;50.956;4.746;2023-06-22T07:10:57;23.00;99.90
24049;DHT22;12250;50.956;4.746;2023-06-22T07:13:23;23.00;99.90
24049;DHT22;12250;50.956;4.746;2023-06-22T07:15:49;23.20;99.90
24049;DHT22;12250;50.956;4.746;2023-06-22T07:18:14;23.20;99.90
24049;DHT22;12250;50.956;4.746;2023-06-22T07:20:40;23.10;99.90
24049;DHT22;12250;50.956;4.746;2023-06-22T07:23:06;22.80;99.90
24049;DHT22;12250;50.956;4.746;2023-06-22T07:25:32;22.60;99.90
24049;DHT22;12250;50.956;4.746;2023-06-22T07:27:58;22.60;99.90
24049;DHT22;12250;50.956;4.746;2023-06-22T07:30:24;22.70;99.90
24049;DHT22;12250;50.956;4.746;2023-06-22T07:32:50;22.70;99.90
24049;DHT22;12250;50.956;4.746;2023-06-22T07:35:16;22.80;99.90
24049;DHT22;12250;50.956;4.746;2023-06-22T07:37:42;22.40;99.90
24049;DHT22;12250;50.956;4.746;2023-06-22T07:40:09;22.60;99.90
24049;DHT22;12250;50.956;4.746;2023-06-22T07:42:35;22.70;99.90
24049;DHT22;12250;50.956;4.746;2023-06-22T07:45:05;22.90;99.90
24049;DHT22;12250;50.956;4.746;2023-06-22T07:47:33;23.00;99.90
24049;DHT22;12250;50.956;4.746;2023-06-22T07:50:00;22.70;99.90
24049;DHT22;12250;50.956;4.746;2023-06-22T07:52:27;22.70;99.90
24049;DHT22;12250;50.956;4.746;2023-06-22T07:54:53;22.60;99.90
24049;DHT22;12250;50.956;4.746;2023-06-22T07:57:20;22.80;99.90
24049;DHT22;12250;50.956;4.746;2023-06-22T07:59:45;22.80;99.90
24049;DHT22;12250;50.956;4.746;2023-06-22T08:02:11;22.60;99.90
24049;DHT22;12250;50.956;4.746;2023-06-22T08:04:37;22.60;99.90
24049;DHT22;12250;50.956;4.746;2023-06-22T08:07:03;22.50;99.90
24049;DHT22;12250;50.956;4.746;2023-06-22T08:09:31;22.50;99.90
24049;DHT22;12250;50.956;4.746;2023-06-22T08:11:57;22.40;99.90
24049;DHT22;12250;50.956;4.746;2023-06-22T08:14:25;22.50;99.90
24049;DHT22;12250;50.956;4.746;2023-06-22T08:16:50;22.40;99.90
24049;DHT22;12250;50.956;4.746;2023-06-22T08:19:16;22.50;99.90
24049;DHT22;12250;50.956;4.746;2023-06-22T08:21:43;22.50;99.90
24049;DHT22;12250;50.956;4.746;2023-06-22T08:24:08;22.40;99.90
24049;DHT22;12250;50.956;4.746;2023-06-22T08:26:34;22.30;99.90
24049;DHT22;12250;50.956;4.746;2023-06-22T08:29:05;22.30;99.90
24049;DHT22;12250;50.956;4.746;2023-06-22T08:31:31;22.30;99.90
24049;DHT22;12250;50.956;4.746;2023-06-22T08:34:00;22.20;99.90
24049;DHT22;12250;50.956;4.746;2023-06-22T08:36:26;22.10;99.90
24049;DHT22;12250;50.956;4.746;2023-06-22T08:38:54;22.10;99.90
24049;DHT22;12250;50.956;4.746;2023-06-22T08:41:23;22.10;99.90
24049;DHT22;12250;50.956;4.746;2023-06-22T08:43:48;22.00;99.90
24049;DHT22;12250;50.956;4.746;2023-06-22T08:46:14;22.00;99.90
24049;DHT22;12250;50.956;4.746;2023-06-22T08:48:45;22.00;99.90
24049;DHT22;12250;50.956;4.746;2023-06-22T08:51:10;22.00;99.90
24049;DHT22;12250;50.956;4.746;2023-06-22T08:53:36;22.10;99.90
24049;DHT22;12250;50.956;4.746;2023-06-22T08:56:02;22.10;99.90
24049;DHT22;12250;50.956;4.746;2023-06-22T08:58:28;22.10;99.90
24049;DHT22;12250;50.956;4.746;2023-06-22T09:00:53;22.10;99.90
24049;DHT22;12250;50.956;4.746;2023-06-22T09:03:19;22.00;99.90
24049;DHT22;12250;50.956;4.746;2023-06-22T09:05:45;21.70;99.90
24049;DHT22;12250;50.956;4.746;2023-06-22T09:08:11;21.60;99.90
24049;DHT22;12250;50.956;4.746;2023-06-22T09:10:37;21.60;99.90
24049;DHT22;12250;50.956;4.746;2023-06-22T09:13:02;21.60;99.90
24049;DHT22;12250;50.956;4.746;2023-06-22T09:15:28;21.70;99.90
24049;DHT22;12250;50.956;4.746;2023-06-22T09:17:54;21.80;99.90
24049;DHT22;12250;50.956;4.746;2023-06-22T09:20:20;21.90;99.90
24049;DHT22;12250;50.956;4.746;2023-06-22T09:22:46;21.70;99.90
24049;DHT22;12250;50.956;4.746;2023-06-22T09:25:11;21.20;99.90
24049;DHT22;12250;50.956;4.746;2023-06-22T09:27:38;20.70;99.90
24049;DHT22;12250;50.956;4.746;2023-06-22T09:30:04;20.30;99.90
24049;DHT22;12250;50.956;4.746;2023-06-22T09:32:29;20.10;99.90
24049;DHT22;12250;50.956;4.746;2023-06-22T09:34:55;19.90;99.90
24049;DHT22;12250;50.956;4.746;2023-06-22T09:37:21;19.50;99.90
24049;DHT22;12250;50.956;4.746;2023-06-22T09:39:46;19.40;99.90
24049;DHT22;12250;50.956;4.746;2023-06-22T09:42:12;19.10;99.90
24049;DHT22;12250;50.956;4.746;2023-06-22T09:44:39;18.90;99.90
24049;DHT22;12250;50.956;4.746;2023-06-22T09:47:05;18.70;99.90
24049;DHT22;12250;50.956;4.746;2023-06-22T09:49:31;18.60;99.90
24049;DHT22;12250;50.956;4.746;2023-06-22T09:51:57;18.50;99.90
24049;DHT22;12250;50.956;4.746;2023-06-22T09:54:23;18.50;99.90
24049;DHT22;12250;50.956;4.746;2023-06-22T09:56:49;18.60;99.90
24049;DHT22;12250;50.956;4.746;2023-06-22T09:59:14;18.70;99.90
24049;DHT22;12250;50.956;4.746;2023-06-22T10:01:40;18.70;99.90
24049;DHT22;12250;50.956;4.746;2023-06-22T10:04:05;18.70;99.90
24049;DHT22;12250;50.956;4.746;2023-06-22T10:06:31;18.60;99.90
24049;DHT22;12250;50.956;4.746;2023-06-22T10:08:57;18.60;99.90
24049;DHT22;12250;50.956;4.746;2023-06-22T10:11:22;18.70;99.90
24049;DHT22;12250;50.956;4.746;2023-06-22T10:13:54;18.60;99.90
24049;DHT22;12250;50.956;4.746;2023-06-22T10:16:20;18.50;99.90
24049;DHT22;12250;50.956;4.746;2023-06-22T10:18:46;18.40;99.90
24049;DHT22;12250;50.956;4.746;2023-06-22T10:21:11;18.50;99.90
24049;DHT22;12250;50.956;4.746;2023-06-22T10:23:37;18.50;99.90
24049;DHT22;12250;50.956;4.746;2023-06-22T10:26:02;18.60;99.90
24049;DHT22;12250;50.956;4.746;2023-06-22T10:28:28;18.70;99.90
24049;DHT22;12250;50.956;4.746;2023-06-22T10:30:54;18.70;99.90
24049;DHT22;12250;50.956;4.746;2023-06-22T10:33:19;18.70;99.90
24049;DHT22;12250;50.956;4.746;2023-06-22T10:35:45;18.80;99.90
24049;DHT22;12250;50.956;4.746;2023-06-22T10:38:11;18.70;99.90
24049;DHT22;12250;50.956;4.746;2023-06-22T10:40:37;18.70;99.90
24049;DHT22;12250;50.956;4.746;2023-06-22T10:43:04;18.60;99.90
24049;DHT22;12250;50.956;4.746;2023-06-22T10:45:30;18.50;99.90
24049;DHT22;12250;50.956;4.746;2023-06-22T10:47:56;18.40;99.90
24049;DHT22;12250;50.956;4.746;2023-06-22T10:50:21;18.30;99.90
24049;DHT22;12250;50.956;4.746;2023-06-22T10:52:49;18.20;99.90
24049;DHT22;12250;50.956;4.746;2023-06-22T10:55:15;18.10;99.90
24049;DHT22;12250;50.956;4.746;2023-06-22T10:57:40;18.10;99.90
24049;DHT22;12250;50.956;4.746;2023-06-22T11:00:08;18.20;99.90
24049;DHT22;12250;50.956;4.746;2023-06-22T11:02:34;18.20;99.90
24049;DHT22;12250;50.956;4.746;2023-06-22T11:05:00;18.20;99.90
24049;DHT22;12250;50.956;4.746;2023-06-22T11:07:26;18.10;99.90
24049;DHT22;12250;50.956;4.746;2023-06-22T11:09:54;18.20;99.90
24049;DHT22;12250;50.956;4.746;2023-06-22T11:12:20;18.30;99.90
24049;DHT22;12250;50.956;4.746;2023-06-22T11:14:45;18.30;99.90
24049;DHT22;12250;50.956;4.746;2023-06-22T11:17:11;18.40;99.90
24049;DHT22;12250;50.956;4.746;2023-06-22T11:19:37;18.50;99.90
24049;DHT22;12250;50.956;4.746;2023-06-22T11:22:02;18.60;99.90
24049;DHT22;12250;50.956;4.746;2023-06-22T11:24:28;18.70;99.90
24049;DHT22;12250;50.956;4.746;2023-06-22T11:26:54;18.80;99.90
24049;DHT22;12250;50.956;4.746;2023-06-22T11:29:19;19.00;99.90
24049;DHT22;12250;50.956;4.746;2023-06-22T11:31:45;19.20;99.90
24049;DHT22;12250;50.956;4.746;2023-06-22T11:34:11;19.40;99.90
24049;DHT22;12250;50.956;4.746;2023-06-22T11:36:36;19.40;99.90
24049;DHT22;12250;50.956;4.746;2023-06-22T11:39:02;19.40;99.90
24049;DHT22;12250;50.956;4.746;2023-06-22T11:41:28;19.40;99.90
24049;DHT22;12250;50.956;4.746;2023-06-22T11:43:53;19.30;99.90
24049;DHT22;12250;50.956;4.746;2023-06-22T11:46:19;19.20;99.90
24049;DHT22;12250;50.956;4.746;2023-06-22T11:48:45;19.10;99.90
24049;DHT22;12250;50.956;4.746;2023-06-22T11:51:11;18.90;99.90
24049;DHT22;12250;50.956;4.746;2023-06-22T11:53:36;18.90;99.90
24049;DHT22;12250;50.956;4.746;2023-06-22T11:56:02;18.90;99.90
24049;DHT22;12250;50.956;4.746;2023-06-22T11:58:28;19.00;99.90
24049;DHT22;12250;50.956;4.746;2023-06-22T12:00:54;19.00;99.90
24049;DHT22;12250;50.956;4.746;2023-06-22T12:03:20;18.90;99.90
24049;DHT22;12250;50.956;4.746;2023-06-22T12:05:47;18.90;99.90
24049;DHT22;12250;50.956;4.746;2023-06-22T12:08:12;19.00;99.90
24049;DHT22;12250;50.956;4.746;2023-06-22T12:10:39;19.00;99.90
24049;DHT22;12250;50.956;4.746;2023-06-22T12:13:05;19.00;99.90
24049;DHT22;12250;50.956;4.746;2023-06-22T12:15:30;18.90;99.90
24049;DHT22;12250;50.956;4.746;2023-06-22T12:17:56;18.90;99.90
24049;DHT22;12250;50.956;4.746;2023-06-22T12:20:22;18.80;99.90
24049;DHT22;12250;50.956;4.746;2023-06-22T12:22:47;18.90;99.90
24049;DHT22;12250;50.956;4.746;2023-06-22T12:25:13;18.90;99.90
24049;DHT22;12250;50.956;4.746;2023-06-22T12:27:40;18.90;99.90
24049;DHT22;12250;50.956;4.746;2023-06-22T12:30:06;19.00;99.90
24049;DHT22;12250;50.956;4.746;2023-06-22T12:32:32;18.90;99.90
24049;DHT22;12250;50.956;4.746;2023-06-22T12:34:57;18.80;99.90
24049;DHT22;12250;50.956;4.746;2023-06-22T12:37:23;18.60;99.90
24049;DHT22;12250;50.956;4.746;2023-06-22T12:39:49;18.60;99.90
24049;DHT22;12250;50.956;4.746;2023-06-22T12:42:15;18.70;99.90
24049;DHT22;12250;50.956;4.746;2023-06-22T12:44:41;18.70;99.90
24049;DHT22;12250;50.956;4.746;2023-06-22T12:47:08;18.70;99.90
24049;DHT22;12250;50.956;4.746;2023-06-22T12:49:34;18.70;99.90
24049;DHT22;12250;50.956;4.746;2023-06-22T12:52:01;18.70;99.90
24049;DHT22;12250;50.956;4.746;2023-06-22T12:54:27;18.70;99.90
24049;DHT22;12250;50.956;4.746;2023-06-22T12:56:53;18.70;99.90
24049;DHT22;12250;50.956;4.746;2023-06-22T12:59:19;18.70;99.90
24049;DHT22;12250;50.956;4.746;2023-06-22T13:01:45;18.80;99.90
24049;DHT22;12250;50.956;4.746;2023-06-22T13:04:11;18.80;99.90
24049;DHT22;12250;50.956;4.746;2023-06-22T13:06:43;18.90;99.90
24049;DHT22;12250;50.956;4.746;2023-06-22T13:09:10;18.80;99.90
24049;DHT22;12250;50.956;4.746;2023-06-22T13:11:35;18.70;99.90
24049;DHT22;12250;50.956;4.746;2023-06-22T13:14:01;18.60;99.90
24049;DHT22;12250;50.956;4.746;2023-06-22T13:16:27;18.60;99.90
24049;DHT22;12250;50.956;4.746;2023-06-22T13:18:52;18.70;99.90
24049;DHT22;12250;50.956;4.746;2023-06-22T13:21:18;18.80;99.90
24049;DHT22;12250;50.956;4.746;2023-06-22T13:23:44;18.90;99.90
24049;DHT22;12250;50.956;4.746;2023-06-22T13:26:09;19.00;99.90
24049;DHT22;12250;50.956;4.746;2023-06-22T13:28:35;19.10;99.90
24049;DHT22;12250;50.956;4.746;2023-06-22T13:31:00;19.10;99.90
24049;DHT22;12250;50.956;4.746;2023-06-22T13:33:26;19.10;99.90
24049;DHT22;12250;50.956;4.746;2023-06-22T13:35:52;19.00;99.90
24049;DHT22;12250;50.956;4.746;2023-06-22T13:38:17;19.00;99.90
24049;DHT22;12250;50.956;4.746;2023-06-22T13:40:43;19.00;99.90
24049;DHT22;12250;50.956;4.746;2023-06-22T13:43:09;19.00;99.90
24049;DHT22;12250;50.956;4.746;2023-06-22T13:45:35;19.00;99.90
24049;DHT22;12250;50.956;4.746;2023-06-22T13:48:00;19.00;99.90
24049;DHT22;12250;50.956;4.746;2023-06-22T13:50:26;19.00;99.90
24049;DHT22;12250;50.956;4.746;2023-06-22T13:52:52;19.00;99.90
24049;DHT22;12250;50.956;4.746;2023-06-22T13:55:17;19.00;99.90
24049;DHT22;12250;50.956;4.746;2023-06-22T13:57:45;19.00;99.90
24049;DHT22;12250;50.956;4.746;2023-06-22T14:00:11;19.00;99.90
24049;DHT22;12250;50.956;4.746;2023-06-22T14:02:40;19.00;99.90
24049;DHT22;12250;50.956;4.746;2023-06-22T14:05:07;19.00;99.90
24049;DHT22;12250;50.956;4.746;2023-06-22T14:07:33;19.00;99.90
24049;DHT22;12250;50.956;4.746;2023-06-22T14:10:00;19.00;99.90
24049;DHT22;12250;50.956;4.746;2023-06-22T14:12:25;18.90;99.90
24049;DHT22;12250;50.956;4.746;2023-06-22T14:14:51;19.00;99.90
24049;DHT22;12250;50.956;4.746;2023-06-22T14:17:18;19.00;99.90
24049;DHT22;12250;50.956;4.746;2023-06-22T14:19:49;18.80;99.90
24049;DHT22;12250;50.956;4.746;2023-06-22T14:22:15;18.90;99.90
24049;DHT22;12250;50.956;4.746;2023-06-22T14:24:41;18.90;99.90
24049;DHT22;12250;50.956;4.746;2023-06-22T14:27:06;18.90;99.90
24049;DHT22;12250;50.956;4.746;2023-06-22T14:29:34;19.00;99.90
24049;DHT22;12250;50.956;4.746;2023-06-22T14:32:00;18.90;99.90
24049;DHT22;12250;50.956;4.746;2023-06-22T14:34:25;19.00;99.90
24049;DHT22;12250;50.956;4.746;2023-06-22T14:36:51;18.90;99.90
24049;DHT22;12250;50.956;4.746;2023-06-22T14:39:16;19.00;99.90
24049;DHT22;12250;50.956;4.746;2023-06-22T14:41:42;18.90;99.90
24049;DHT22;12250;50.956;4.746;2023-06-22T14:44:08;18.90;99.90
24049;DHT22;12250;50.956;4.746;2023-06-22T14:46:33;19.00;99.90
24049;DHT22;12250;50.956;4.746;2023-06-22T14:48:59;19.00;99.90
24049;DHT22;12250;50.956;4.746;2023-06-22T14:51:25;19.00;99.90
24049;DHT22;12250;50.956;4.746;2023-06-22T14:53:50;19.10;99.90
24049;DHT22;12250;50.956;4.746;2023-06-22T14:56:16;19.10;99.90
24049;DHT22;12250;50.956;4.746;2023-06-22T14:58:43;19.00;99.90
24049;DHT22;12250;50.956;4.746;2023-06-22T15:01:11;18.90;99.90
24049;DHT22;12250;50.956;4.746;2023-06-22T15:03:37;19.00;99.90
24049;DHT22;12250;50.956;4.746;2023-06-22T15:06:04;19.00;99.90
24049;DHT22;12250;50.956;4.746;2023-06-22T15:08:29;19.10;99.90
24049;DHT22;12250;50.956;4.746;2023-06-22T15:10:57;19.00;99.90
24049;DHT22;12250;50.956;4.746;2023-06-22T15:13:23;19.00;99.90
24049;DHT22;12250;50.956;4.746;2023-06-22T15:15:51;19.00;99.90
24049;DHT22;12250;50.956;4.746;2023-06-22T15:18:17;19.00;99.90
24049;DHT22;12250;50.956;4.746;2023-06-22T15:20:43;19.10;99.90
24049;DHT22;12250;50.956;4.746;2023-06-22T15:23:11;19.20;99.90
24049;DHT22;12250;50.956;4.746;2023-06-22T15:25:37;19.20;99.90
24049;DHT22;12250;50.956;4.746;2023-06-22T15:28:03;19.20;99.90
24049;DHT22;12250;50.956;4.746;2023-06-22T15:30:29;19.20;99.90